Time;durP1;ratioP1;P1;durP2;ratioP2;P2;SDS_P1;SDS_P2;PMS_P1;PMS_P2;Temp;Humidity;BMP_temperature;BMP_pressure;BME280_temperature;BME280_humidity;BME280_pressure;Samples;Min_cycle;Max_cycle;Signal;HPM_P1;HPM_P2
2022/11/11 00:01:14;;;;;;;21.10;13.70;;;;;;;;;;5011156;28;20204;-79
2022/11/11 00:03:41;;;;;;;25.13;14.53;;;;;;;;;;5014275;28;20745;-79
2022/11/11 00:06:10;;;;;;;27.23;15.33;;;;;;;;;;5012491;28;20244;-79
2022/11/11 00:08:37;;;;;;;24.53;14.93;;;;;;;;;;5012587;28;20292;-78
2022/11/11 00:11:06;;;;;;;23.53;14.53;;;;;;;;;;5013774;28;20197;-79
2022/11/11 00:13:34;;;;;;;24.33;15.23;;;;;;;;;;5012520;28;20276;-79
2022/11/11 00:16:05;;;;;;;26.30;14.63;;;;;;;;;;5012183;28;20284;-79
2022/11/11 00:26:47;;;;;;;19.70;13.13;;;;;;;;;;5016929;28;20243;-78
2022/11/11 00:29:15;;;;;;;19.00;12.63;;;;;;;;;;5015813;28;20319;-79
2022/11/11 00:34:23;;;;;;;17.27;11.83;;;;;;;;;;5011714;28;20220;-79
2022/11/11 00:36:49;;;;;;;17.73;11.63;;;;;;;;;;5014323;28;20296;-78
2022/11/11 00:39:16;;;;;;;18.63;11.10;;;;;;;;;;5012983;28;20553;-78
2022/11/11 00:41:43;;;;;;;20.03;11.63;;;;;;;;;;5012972;28;20236;-79
2022/11/11 00:44:12;;;;;;;17.13;11.33;;;;;;;;;;5014751;28;20282;-79
2022/11/11 00:52:08;;;;;;;16.07;10.83;;;;;;;;;;5016693;28;20215;-79
2022/11/11 00:54:35;;;;;;;16.90;11.30;;;;;;;;;;5017477;28;20319;-79
2022/11/11 00:57:03;;;;;;;19.07;11.93;;;;;;;;;;5011971;28;20738;-79
2022/11/11 00:59:31;;;;;;;21.00;11.80;;;;;;;;;;5011148;28;20232;-79
2022/11/11 01:01:58;;;;;;;16.83;11.17;;;;;;;;;;5011507;28;20240;-78
2022/11/11 01:04:26;;;;;;;18.97;11.80;;;;;;;;;;5011286;28;20280;-79
2022/11/11 01:06:53;;;;;;;18.57;11.27;;;;;;;;;;5012952;28;20240;-78
2022/11/11 01:09:20;;;;;;;19.50;11.63;;;;;;;;;;5012462;28;20293;-79
2022/11/11 01:11:47;;;;;;;17.33;10.97;;;;;;;;;;5011693;28;20818;-79
2022/11/11 01:14:14;;;;;;;16.73;10.97;;;;;;;;;;5011456;28;20705;-78
2022/11/11 01:16:43;;;;;;;18.20;10.57;;;;;;;;;;5011525;28;20204;-78
2022/11/11 01:19:10;;;;;;;18.57;10.67;;;;;;;;;;5011178;28;20211;-79
2022/11/11 01:21:37;;;;;;;16.90;10.20;;;;;;;;;;5013290;28;20236;-78
2022/11/11 01:24:04;;;;;;;21.50;10.10;;;;;;;;;;5010665;28;20715;-79
2022/11/11 01:26:32;;;;;;;15.77;9.70;;;;;;;;;;5012139;28;20201;-78
2022/11/11 01:28:59;;;;;;;14.87;10.17;;;;;;;;;;5012870;28;20243;-79
2022/11/11 01:31:27;;;;;;;15.37;8.90;;;;;;;;;;5013832;28;20638;-79
2022/11/11 01:33:56;;;;;;;13.47;9.47;;;;;;;;;;5013056;28;20708;-78
2022/11/11 01:36:24;;;;;;;15.73;9.53;;;;;;;;;;5014272;28;20676;-79
2022/11/11 01:38:52;;;;;;;15.97;9.43;;;;;;;;;;5013006;28;20200;-78
2022/11/11 01:41:33;;;;;;;12.93;8.60;;;;;;;;;;5012799;28;20251;-78
2022/11/11 01:44:00;;;;;;;15.83;9.00;;;;;;;;;;5012222;28;20224;-79
2022/11/11 01:46:33;;;;;;;15.40;9.17;;;;;;;;;;5011776;28;20708;-79
2022/11/11 01:49:19;;;;;;;16.07;9.27;;;;;;;;;;5011839;28;20228;-78
2022/11/11 01:51:50;;;;;;;18.30;9.53;;;;;;;;;;5011772;28;20211;-78
2022/11/11 01:54:19;;;;;;;17.80;9.53;;;;;;;;;;5010854;28;20315;-78
2022/11/11 01:56:49;;;;;;;15.77;8.10;;;;;;;;;;5009495;28;20223;-78
2022/11/11 01:59:17;;;;;;;13.93;8.23;;;;;;;;;;5010884;28;20243;-78
2022/11/11 02:01:45;;;;;;;18.03;9.13;;;;;;;;;;5010786;28;20760;-79
2022/11/11 02:06:59;;;;;;;18.43;9.30;;;;;;;;;;5010133;28;20204;-79
2022/11/11 02:09:26;;;;;;;17.70;9.53;;;;;;;;;;5014090;28;20207;-79
2022/11/11 02:14:41;;;;;;;21.33;10.10;;;;;;;;;;5011554;28;20239;-78
2022/11/11 02:17:10;;;;;;;21.03;10.47;;;;;;;;;;5011099;28;20802;-80
2022/11/11 02:19:43;;;;;;;19.57;9.43;;;;;;;;;;5011364;28;20232;-80
2022/11/11 02:22:13;;;;;;;23.07;10.57;;;;;;;;;;5011818;28;20200;-79
2022/11/11 02:24:42;;;;;;;18.37;10.37;;;;;;;;;;5010436;28;21005;-79
2022/11/11 02:27:11;;;;;;;18.60;9.77;;;;;;;;;;5010662;28;20205;-79
2022/11/11 02:29:38;;;;;;;18.90;10.37;;;;;;;;;;5009662;28;20359;-79
2022/11/11 02:32:06;;;;;;;20.57;10.17;;;;;;;;;;5010280;28;20334;-79
2022/11/11 02:34:34;;;;;;;16.03;9.23;;;;;;;;;;5009676;28;20220;-79
2022/11/11 02:37:03;;;;;;;19.50;9.67;;;;;;;;;;5009714;28;20740;-80
2022/11/11 02:39:30;;;;;;;22.10;9.10;;;;;;;;;;5012486;28;20292;-79
2022/11/11 02:41:59;;;;;;;14.73;7.67;;;;;;;;;;5011149;28;20291;-79
2022/11/11 02:44:26;;;;;;;15.00;7.27;;;;;;;;;;5009490;28;20201;-79
2022/11/11 02:46:53;;;;;;;14.37;7.60;;;;;;;;;;5009417;28;20225;-79
2022/11/11 02:49:21;;;;;;;13.63;7.73;;;;;;;;;;5006608;28;20308;-79
2022/11/11 02:51:48;;;;;;;12.53;7.40;;;;;;;;;;5006599;28;20580;-78
2022/11/11 02:54:15;;;;;;;14.97;6.63;;;;;;;;;;5010135;28;20676;-79
2022/11/11 02:59:28;;;;;;;15.47;6.83;;;;;;;;;;5007424;28;20211;-79
2022/11/11 03:01:55;;;;;;;17.57;7.10;;;;;;;;;;5009191;28;20236;-79
2022/11/11 03:04:22;;;;;;;14.73;6.97;;;;;;;;;;5009554;28;20285;-79
2022/11/11 03:06:50;;;;;;;14.43;7.73;;;;;;;;;;5007334;28;20291;-78
2022/11/11 03:09:17;;;;;;;14.67;7.57;;;;;;;;;;5009635;28;20228;-79
2022/11/11 03:11:44;;;;;;;15.93;7.53;;;;;;;;;;5009691;28;20295;-79
2022/11/11 03:14:11;;;;;;;14.73;7.70;;;;;;;;;;5011542;28;20229;-80
2022/11/11 03:19:24;;;;;;;16.33;8.63;;;;;;;;;;5015497;28;20683;-79
2022/11/11 03:21:51;;;;;;;18.50;8.00;;;;;;;;;;5014821;28;20283;-79
2022/11/11 03:24:18;;;;;;;17.67;8.00;;;;;;;;;;5014930;28;20197;-78
2022/11/11 03:26:44;;;;;;;13.63;7.77;;;;;;;;;;5015776;28;20224;-79
2022/11/11 03:29:11;;;;;;;12.63;6.73;;;;;;;;;;5014689;28;20228;-79
2022/11/11 03:31:40;;;;;;;15.63;6.90;;;;;;;;;;5013444;28;20223;-79
2022/11/11 03:34:19;;;;;;;11.73;6.17;;;;;;;;;;5014597;28;20232;-79
2022/11/11 03:39:31;;;;;;;14.00;6.73;;;;;;;;;;5012523;28;20212;-79
2022/11/11 03:41:59;;;;;;;14.83;6.60;;;;;;;;;;5013211;28;20285;-79
2022/11/11 03:44:27;;;;;;;14.23;7.00;;;;;;;;;;5012409;28;20296;-79
2022/11/11 03:46:55;;;;;;;16.77;7.30;;;;;;;;;;5014502;28;20754;-80
2022/11/11 03:49:23;;;;;;;13.43;7.10;;;;;;;;;;5012852;28;20197;-80
2022/11/11 03:51:50;;;;;;;15.17;7.87;;;;;;;;;;5017881;28;20304;-79
2022/11/11 03:54:17;;;;;;;17.03;8.30;;;;;;;;;;5013431;28;20248;-80
2022/11/11 03:56:44;;;;;;;16.20;8.80;;;;;;;;;;5013753;28;20231;-79
2022/11/11 03:59:11;;;;;;;15.67;8.63;;;;;;;;;;5014135;28;20284;-80
2022/11/11 04:18:06;;;;;;;15.53;7.23;;;;;;;;;;4949889;28;20326;-79
2022/11/11 04:23:18;;;;;;;17.43;7.10;;;;;;;;;;4937567;29;20230;-79
2022/11/11 04:25:52;;;;;;;13.87;7.50;;;;;;;;;;4932565;29;20291;-79
2022/11/11 04:31:04;;;;;;;13.53;7.00;;;;;;;;;;4933109;29;20355;-80
2022/11/11 04:33:31;;;;;;;17.17;7.53;;;;;;;;;;4930887;29;20287;-79
2022/11/11 04:36:00;;;;;;;13.83;7.07;;;;;;;;;;4932072;29;20303;-80
2022/11/11 04:41:11;;;;;;;16.67;7.70;;;;;;;;;;4936277;29;20286;-79
2022/11/11 04:46:20;;;;;;;20.53;8.10;;;;;;;;;;4987874;28;20194;-79
2022/11/11 04:48:47;;;;;;;17.00;8.20;;;;;;;;;;4990049;28;20202;-79
2022/11/11 04:51:15;;;;;;;16.33;8.33;;;;;;;;;;4990093;28;20285;-79
2022/11/11 04:53:43;;;;;;;13.70;7.80;;;;;;;;;;4996181;28;20293;-79
2022/11/11 05:04:20;;;;;;;15.93;7.30;;;;;;;;;;5008995;28;20244;-79
2022/11/11 05:09:33;;;;;;;16.13;7.07;;;;;;;;;;5014228;28;20204;-79
2022/11/11 05:12:01;;;;;;;15.87;7.53;;;;;;;;;;5012111;28;20237;-79
2022/11/11 05:22:44;;;;;;;12.83;7.20;;;;;;;;;;5011351;28;20236;-79
2022/11/11 05:25:28;;;;;;;13.40;7.27;;;;;;;;;;5014154;28;20207;-79
2022/11/11 05:27:55;;;;;;;13.47;6.90;;;;;;;;;;5010510;28;20213;-79
2022/11/11 05:30:23;;;;;;;14.67;7.90;;;;;;;;;;5008096;28;20328;-80
2022/11/11 05:32:50;;;;;;;14.60;7.43;;;;;;;;;;5012165;28;20296;-79
2022/11/11 05:35:17;;;;;;;15.17;7.97;;;;;;;;;;5014890;28;21407;-80
2022/11/11 05:38:19;;;;;;;15.10;8.13;;;;;;;;;;5010066;28;20233;-79
2022/11/11 05:40:34;;;;;;;15.97;7.40;;;;;;;;;;5009864;28;20201;-79
2022/11/11 05:43:02;;;;;;;15.77;8.67;;;;;;;;;;5009622;28;20219;-79
2022/11/11 05:45:29;;;;;;;15.70;7.93;;;;;;;;;;5009822;28;20267;-79
2022/11/11 05:48:01;;;;;;;14.73;7.80;;;;;;;;;;5010463;28;20263;-79
2022/11/11 05:50:28;;;;;;;17.23;8.37;;;;;;;;;;5011537;28;20208;-79
2022/11/11 05:52:57;;;;;;;12.87;7.70;;;;;;;;;;4994445;28;20300;-79
2022/11/11 05:55:24;;;;;;;14.73;7.90;;;;;;;;;;5010265;28;20322;-78
2022/11/11 05:57:51;;;;;;;12.37;7.93;;;;;;;;;;5013606;28;20288;-79
2022/11/11 06:00:19;;;;;;;17.20;8.73;;;;;;;;;;5010357;28;20197;-79
2022/11/11 06:02:46;;;;;;;17.53;8.47;;;;;;;;;;5010619;28;20288;-79
2022/11/11 06:05:13;;;;;;;16.20;8.80;;;;;;;;;;5011298;28;20252;-79
2022/11/11 06:07:41;;;;;;;16.07;8.63;;;;;;;;;;5011558;28;20343;-79
2022/11/11 06:13:09;;;;;;;18.03;9.07;;;;;;;;;;5009161;28;20204;-79
2022/11/11 06:15:36;;;;;;;16.77;9.03;;;;;;;;;;5009799;28;21102;-80
2022/11/11 06:18:04;;;;;;;13.27;8.13;;;;;;;;;;5009452;28;20288;-79
2022/11/11 06:20:34;;;;;;;15.40;8.20;;;;;;;;;;4997995;28;20302;-79
2022/11/11 06:23:01;;;;;;;17.90;8.80;;;;;;;;;;5011677;28;20637;-79
2022/11/11 06:28:15;;;;;;;21.63;8.87;;;;;;;;;;5006937;28;20204;-79
2022/11/11 06:30:42;;;;;;;16.23;8.67;;;;;;;;;;5009393;28;20328;-79
2022/11/11 06:33:10;;;;;;;14.83;8.40;;;;;;;;;;5009406;28;20343;-79
2022/11/11 06:35:38;;;;;;;16.33;8.37;;;;;;;;;;5009823;28;20267;-79
2022/11/11 06:38:06;;;;;;;18.17;8.27;;;;;;;;;;5011916;28;20255;-78
2022/11/11 06:40:34;;;;;;;20.37;9.00;;;;;;;;;;5014759;28;20287;-78
2022/11/11 06:43:02;;;;;;;15.13;8.73;;;;;;;;;;5016180;28;20204;-78
2022/11/11 06:45:29;;;;;;;20.77;9.97;;;;;;;;;;5013899;28;20228;-78
2022/11/11 06:47:57;;;;;;;17.30;9.80;;;;;;;;;;5010161;28;20284;-78
2022/11/11 06:50:24;;;;;;;18.77;10.60;;;;;;;;;;5013977;28;20299;-79
2022/11/11 06:52:51;;;;;;;19.17;10.60;;;;;;;;;;5011127;28;20197;-78
2022/11/11 06:55:19;;;;;;;18.07;10.60;;;;;;;;;;5010041;28;20212;-77
2022/11/11 06:57:47;;;;;;;17.10;9.73;;;;;;;;;;5000448;28;20303;-79
2022/11/11 07:00:15;;;;;;;20.60;10.40;;;;;;;;;;5019152;28;20233;-78
2022/11/11 07:02:42;;;;;;;17.03;9.87;;;;;;;;;;5019406;28;20205;-78
2022/11/11 07:05:09;;;;;;;16.40;10.07;;;;;;;;;;5026508;28;20294;-78
2022/11/11 07:07:36;;;;;;;18.70;10.07;;;;;;;;;;5015272;28;20208;-78
2022/11/11 07:10:06;;;;;;;20.20;9.87;;;;;;;;;;5021047;28;20739;-78
2022/11/11 07:12:33;;;;;;;18.40;9.57;;;;;;;;;;5021088;28;20202;-79
2022/11/11 07:15:01;;;;;;;16.83;10.47;;;;;;;;;;5017138;28;20294;-79
2022/11/11 07:17:28;;;;;;;18.70;10.43;;;;;;;;;;5022722;28;20222;-79
2022/11/11 07:19:56;;;;;;;16.13;9.47;;;;;;;;;;5014003;28;20227;-79
2022/11/11 07:22:23;;;;;;;14.97;8.43;;;;;;;;;;5015280;28;20300;-79
2022/11/11 07:24:50;;;;;;;14.47;8.43;;;;;;;;;;5020733;28;20203;-79
2022/11/11 07:27:17;;;;;;;14.40;9.20;;;;;;;;;;5027522;28;20425;-78
2022/11/11 07:29:45;;;;;;;15.00;9.60;;;;;;;;;;5020313;28;20277;-78
2022/11/11 07:32:13;;;;;;;16.10;9.90;;;;;;;;;;5015117;28;20698;-79
2022/11/11 07:34:40;;;;;;;15.00;8.50;;;;;;;;;;5019392;28;20294;-78
2022/11/11 07:37:08;;;;;;;17.90;8.63;;;;;;;;;;5020855;28;20251;-79
2022/11/11 07:39:35;;;;;;;21.03;9.83;;;;;;;;;;5019662;28;20608;-78
2022/11/11 07:42:02;;;;;;;15.33;8.17;;;;;;;;;;5012864;28;20651;-78
2022/11/11 07:44:29;;;;;;;13.37;8.77;;;;;;;;;;5027577;28;20700;-79
2022/11/11 07:46:57;;;;;;;15.93;8.57;;;;;;;;;;5025998;28;20207;-79
2022/11/11 07:49:25;;;;;;;14.23;8.97;;;;;;;;;;5016856;28;20254;-79
2022/11/11 07:51:52;;;;;;;14.33;8.40;;;;;;;;;;5031316;28;20243;-78
2022/11/11 07:54:19;;;;;;;16.93;9.07;;;;;;;;;;5010059;28;20632;-79
2022/11/11 07:56:47;;;;;;;17.67;8.90;;;;;;;;;;5023176;28;20248;-79
2022/11/11 07:59:14;;;;;;;18.23;9.40;;;;;;;;;;5026837;28;20281;-78
2022/11/11 08:01:41;;;;;;;14.30;8.77;;;;;;;;;;5003676;28;20297;-79
2022/11/11 08:04:08;;;;;;;14.97;8.90;;;;;;;;;;5011271;28;20225;-80
2022/11/11 08:06:37;;;;;;;15.77;9.00;;;;;;;;;;5012827;28;20257;-80
2022/11/11 08:09:04;;;;;;;17.50;9.33;;;;;;;;;;5021069;28;20208;-80
2022/11/11 08:14:17;;;;;;;16.13;9.70;;;;;;;;;;5017580;28;20704;-80
2022/11/11 08:16:44;;;;;;;18.43;10.27;;;;;;;;;;5025723;28;20254;-79
2022/11/11 08:19:11;;;;;;;20.03;10.83;;;;;;;;;;5026919;28;20234;-79
2022/11/11 08:21:39;;;;;;;18.13;10.10;;;;;;;;;;5022413;28;20222;-79
2022/11/11 08:24:07;;;;;;;20.07;9.60;;;;;;;;;;5008721;28;20233;-79
2022/11/11 08:26:34;;;;;;;16.70;9.60;;;;;;;;;;5028124;28;20245;-80
2022/11/11 08:29:02;;;;;;;18.53;9.63;;;;;;;;;;5020898;28;20311;-80
2022/11/11 08:31:29;;;;;;;16.00;9.90;;;;;;;;;;5028473;28;20240;-80
2022/11/11 08:33:56;;;;;;;14.83;9.73;;;;;;;;;;5021903;28;20665;-80
2022/11/11 08:36:25;;;;;;;17.43;9.90;;;;;;;;;;5022115;28;20676;-80
2022/11/11 08:38:53;;;;;;;16.93;9.23;;;;;;;;;;5015688;28;20201;-80
2022/11/11 08:41:22;;;;;;;17.07;9.43;;;;;;;;;;5029729;28;20656;-79
2022/11/11 08:43:52;;;;;;;19.93;9.93;;;;;;;;;;5029363;28;20238;-79
2022/11/11 08:46:19;;;;;;;17.97;10.33;;;;;;;;;;5013786;28;20287;-79
2022/11/11 08:48:46;;;;;;;21.03;10.57;;;;;;;;;;5026206;28;20220;-79
2022/11/11 08:51:13;;;;;;;17.93;10.33;;;;;;;;;;5017118;28;20228;-79
2022/11/11 08:53:41;;;;;;;20.13;10.83;;;;;;;;;;5024177;28;20636;-79
2022/11/11 08:56:11;;;;;;;21.00;11.13;;;;;;;;;;5024100;28;20224;-79
2022/11/11 08:58:38;;;;;;;17.83;10.50;;;;;;;;;;5023659;28;20586;-79
2022/11/11 09:01:05;;;;;;;20.70;12.13;;;;;;;;;;5024152;28;20300;-79
2022/11/11 09:03:33;;;;;;;18.70;10.50;;;;;;;;;;5022363;28;20285;-79
2022/11/11 09:06:00;;;;;;;19.27;10.63;;;;;;;;;;5024158;28;20238;-80
2022/11/11 09:08:27;;;;;;;15.10;9.50;;;;;;;;;;5016404;28;20232;-80
2022/11/11 09:10:54;;;;;;;14.97;9.30;;;;;;;;;;5028381;28;20232;-79
2022/11/11 09:13:23;;;;;;;16.30;10.07;;;;;;;;;;5014196;28;20209;-78
2022/11/11 09:15:50;;;;;;;23.77;15.83;;;;;;;;;;5015902;28;20236;-79
2022/11/11 09:18:17;;;;;;;18.93;11.50;;;;;;;;;;5006332;28;20327;-77
2022/11/11 09:20:44;;;;;;;21.60;12.33;;;;;;;;;;5023976;28;20634;-78
2022/11/11 09:23:11;;;;;;;15.90;10.17;;;;;;;;;;5022396;28;20201;-78
2022/11/11 09:25:39;;;;;;;15.70;10.07;;;;;;;;;;5017289;28;20274;-77
2022/11/11 09:28:06;;;;;;;18.97;11.10;;;;;;;;;;5024416;28;20227;-80
2022/11/11 09:30:35;;;;;;;16.97;10.10;;;;;;;;;;5014436;28;20314;-80
2022/11/11 09:33:08;;;;;;;16.73;10.03;;;;;;;;;;5019039;28;20227;-78
2022/11/11 09:35:36;;;;;;;12.07;8.67;;;;;;;;;;5016355;28;20311;-78
2022/11/11 09:38:03;;;;;;;12.23;7.63;;;;;;;;;;5021195;28;20224;-78
2022/11/11 09:40:40;;;;;;;14.17;9.07;;;;;;;;;;5021786;28;20287;-77
2022/11/11 09:43:13;;;;;;;15.20;9.23;;;;;;;;;;5017010;28;20228;-79
2022/11/11 09:45:49;;;;;;;13.30;9.20;;;;;;;;;;5020019;28;20255;-80
2022/11/11 09:48:25;;;;;;;14.67;10.13;;;;;;;;;;5017798;28;20279;-80
2022/11/11 09:50:55;;;;;;;16.40;10.33;;;;;;;;;;5018988;28;20211;-80
2022/11/11 09:53:24;;;;;;;12.13;9.03;;;;;;;;;;5019420;28;20291;-80
2022/11/11 09:55:53;;;;;;;33.13;23.27;;;;;;;;;;5021048;28;20663;-80
2022/11/11 09:58:22;;;;;;;15.00;10.07;;;;;;;;;;5019289;28;20676;-80
2022/11/11 10:00:55;;;;;;;14.97;10.13;;;;;;;;;;5013777;28;20236;-80
2022/11/11 10:03:25;;;;;;;12.17;9.00;;;;;;;;;;5012623;28;20288;-79
2022/11/11 10:05:56;;;;;;;14.30;9.77;;;;;;;;;;5014000;28;20197;-79
2022/11/11 10:08:26;;;;;;;10.90;7.87;;;;;;;;;;5013061;28;20324;-80
2022/11/11 10:10:54;;;;;;;10.43;8.17;;;;;;;;;;5014102;28;20229;-79
2022/11/11 10:13:23;;;;;;;12.93;8.77;;;;;;;;;;5014746;28;20719;-80
2022/11/11 10:15:57;;;;;;;12.33;9.23;;;;;;;;;;5028095;28;20211;-80
2022/11/11 10:18:30;;;;;;;11.20;9.27;;;;;;;;;;5020730;28;20256;-80
2022/11/11 10:20:57;;;;;;;9.53;7.87;;;;;;;;;;5015739;28;20236;-80
2022/11/11 10:23:43;;;;;;;10.13;7.67;;;;;;;;;;5020989;28;20300;-79
2022/11/11 10:26:16;;;;;;;9.43;7.67;;;;;;;;;;5020072;28;20192;-78
2022/11/11 10:28:44;;;;;;;9.20;6.77;;;;;;;;;;5030744;28;20303;-78
2022/11/11 10:31:15;;;;;;;8.10;7.30;;;;;;;;;;5014646;28;20203;-79
2022/11/11 10:33:46;;;;;;;11.33;7.57;;;;;;;;;;5014317;28;20292;-79
2022/11/11 10:36:17;;;;;;;8.90;6.80;;;;;;;;;;5012903;28;20229;-79
2022/11/11 10:38:48;;;;;;;8.63;6.17;;;;;;;;;;5014947;28;20196;-79
2022/11/11 10:41:21;;;;;;;8.53;6.10;;;;;;;;;;5016462;28;20228;-79
2022/11/11 10:43:48;;;;;;;8.40;6.47;;;;;;;;;;5011737;28;20211;-79
2022/11/11 10:46:19;;;;;;;8.50;6.80;;;;;;;;;;5018908;28;20204;-77
2022/11/11 10:48:52;;;;;;;9.30;6.13;;;;;;;;;;5012679;28;20621;-77
2022/11/11 10:51:19;;;;;;;8.67;6.77;;;;;;;;;;5015353;28;20692;-77
2022/11/11 10:53:53;;;;;;;10.90;7.10;;;;;;;;;;5016873;28;20239;-77
2022/11/11 10:56:24;;;;;;;9.67;7.00;;;;;;;;;;5013280;28;20288;-78
2022/11/11 10:58:53;;;;;;;9.70;7.07;;;;;;;;;;5022458;28;20677;-78
2022/11/11 11:01:29;;;;;;;9.83;7.17;;;;;;;;;;5022216;28;20284;-78
2022/11/11 11:04:01;;;;;;;11.60;7.73;;;;;;;;;;5014146;28;20212;-78
2022/11/11 11:06:30;;;;;;;10.00;7.30;;;;;;;;;;5016810;28;20286;-77
2022/11/11 11:09:00;;;;;;;10.20;7.20;;;;;;;;;;5016113;28;20632;-78
2022/11/11 11:11:31;;;;;;;10.63;8.03;;;;;;;;;;5016391;28;20236;-77
2022/11/11 11:14:00;;;;;;;12.47;8.50;;;;;;;;;;5011183;28;20235;-77
2022/11/11 11:16:33;;;;;;;11.27;8.63;;;;;;;;;;5012804;28;20555;-78
2022/11/11 11:19:17;;;;;;;12.83;8.60;;;;;;;;;;5018093;28;20228;-78
2022/11/11 11:21:48;;;;;;;13.40;9.13;;;;;;;;;;5013159;28;20201;-78
2022/11/11 11:24:20;;;;;;;12.03;8.93;;;;;;;;;;5020749;28;20196;-78
2022/11/11 11:26:48;;;;;;;13.83;9.53;;;;;;;;;;5014556;28;20279;-78
2022/11/11 11:29:25;;;;;;;14.23;9.73;;;;;;;;;;5022820;28;20327;-78
2022/11/11 11:32:01;;;;;;;13.73;9.30;;;;;;;;;;5007438;28;20204;-78
2022/11/11 11:34:46;;;;;;;11.93;9.27;;;;;;;;;;5024450;28;20563;-78
2022/11/11 11:37:14;;;;;;;11.93;8.63;;;;;;;;;;5009654;28;20319;-78
2022/11/11 11:39:59;;;;;;;12.67;9.00;;;;;;;;;;5014231;28;20232;-78
2022/11/11 11:42:31;;;;;;;11.93;9.27;;;;;;;;;;5011914;28;20760;-78
2022/11/11 11:44:58;;;;;;;13.80;10.23;;;;;;;;;;5020346;28;20228;-85
2022/11/11 11:47:35;;;;;;;13.33;10.10;;;;;;;;;;5021633;28;20288;-82
2022/11/11 11:50:21;;;;;;;16.50;12.00;;;;;;;;;;5016913;28;20228;-81
2022/11/11 11:52:53;;;;;;;12.87;9.30;;;;;;;;;;5025916;28;20201;-81
2022/11/11 11:55:23;;;;;;;12.77;9.83;;;;;;;;;;5024396;28;20232;-81
2022/11/11 11:57:54;;;;;;;13.03;10.07;;;;;;;;;;5025318;28;20704;-84
2022/11/11 12:00:22;;;;;;;12.80;9.90;;;;;;;;;;5022325;28;20217;-82
2022/11/11 12:02:59;;;;;;;13.63;9.90;;;;;;;;;;5020670;28;20233;-81
2022/11/11 12:05:28;;;;;;;15.97;10.90;;;;;;;;;;5019525;28;20216;-82
2022/11/11 12:08:03;;;;;;;14.93;11.07;;;;;;;;;;5028067;28;20275;-83
2022/11/11 12:10:36;;;;;;;16.97;10.90;;;;;;;;;;5023781;28;20291;-82
2022/11/11 12:13:09;;;;;;;16.73;12.17;;;;;;;;;;5022025;28;20251;-81
2022/11/11 12:15:38;;;;;;;15.37;10.97;;;;;;;;;;5024674;28;20207;-81
2022/11/11 12:18:17;;;;;;;13.60;10.77;;;;;;;;;;5017204;28;20220;-81
2022/11/11 12:20:49;;;;;;;15.80;10.83;;;;;;;;;;5020433;28;20205;-81
2022/11/11 12:23:26;;;;;;;13.60;10.30;;;;;;;;;;5020292;28;20641;-81
2022/11/11 12:25:59;;;;;;;13.83;9.90;;;;;;;;;;5026269;28;20240;-81
2022/11/11 12:28:31;;;;;;;16.27;10.23;;;;;;;;;;5023266;28;20200;-81
2022/11/11 12:31:03;;;;;;;14.90;10.10;;;;;;;;;;5026037;28;20681;-81
2022/11/11 12:33:48;;;;;;;15.63;10.80;;;;;;;;;;5019440;28;20251;-82
2022/11/11 12:36:21;;;;;;;13.60;10.53;;;;;;;;;;5020756;28;20255;-87
2022/11/11 12:38:56;;;;;;;14.23;10.30;;;;;;;;;;5032379;28;20299;-86
2022/11/11 12:41:28;;;;;;;14.13;10.70;;;;;;;;;;5017738;28;20696;-86
2022/11/11 12:44:03;;;;;;;14.23;10.07;;;;;;;;;;5013355;28;20735;-88
2022/11/11 12:46:34;;;;;;;14.03;9.83;;;;;;;;;;4996247;28;20283;-85
2022/11/11 12:49:06;;;;;;;15.03;9.67;;;;;;;;;;4994554;28;20306;-86
2022/11/11 12:51:47;;;;;;;13.30;9.33;;;;;;;;;;5018786;28;20202;-86
2022/11/11 12:54:21;;;;;;;12.17;9.33;;;;;;;;;;5006341;28;20748;-85
2022/11/11 12:56:55;;;;;;;14.50;10.20;;;;;;;;;;5016169;28;20293;-86
2022/11/11 12:59:27;;;;;;;12.53;9.53;;;;;;;;;;5018016;28;20271;-85
2022/11/11 13:01:58;;;;;;;13.53;8.97;;;;;;;;;;5017070;28;20279;-86
2022/11/11 13:04:30;;;;;;;10.97;8.87;;;;;;;;;;5015428;28;20629;-86
2022/11/11 13:07:07;;;;;;;9.73;8.23;;;;;;;;;;5020618;28;20197;-85
2022/11/11 13:09:40;;;;;;;10.63;8.60;;;;;;;;;;5022239;28;20220;-85
2022/11/11 13:12:10;;;;;;;13.03;8.00;;;;;;;;;;5016662;28;20291;-85
2022/11/11 13:14:52;;;;;;;10.53;8.67;;;;;;;;;;5019870;28;20201;-85
2022/11/11 13:17:20;;;;;;;11.47;8.03;;;;;;;;;;5026944;28;20288;-84
2022/11/11 13:19:51;;;;;;;11.13;8.30;;;;;;;;;;5021805;28;20568;-85
2022/11/11 13:22:24;;;;;;;11.87;8.27;;;;;;;;;;5015604;28;20229;-85
2022/11/11 13:25:04;;;;;;;13.97;9.23;;;;;;;;;;5018142;28;20223;-86
2022/11/11 13:27:35;;;;;;;11.47;8.23;;;;;;;;;;5023147;28;20597;-86
2022/11/11 13:30:19;;;;;;;10.57;8.37;;;;;;;;;;5018844;28;20268;-84
2022/11/11 13:35:37;;;;;;;11.73;8.60;;;;;;;;;;5014038;28;20287;-84
2022/11/11 13:38:05;;;;;;;11.57;8.40;;;;;;;;;;5019793;28;20308;-85
2022/11/11 13:40:38;;;;;;;12.47;9.17;;;;;;;;;;5016659;28;20280;-85
2022/11/11 13:43:06;;;;;;;10.00;7.97;;;;;;;;;;5024899;28;20228;-84
2022/11/11 13:45:35;;;;;;;11.47;7.90;;;;;;;;;;5021754;28;20247;-85
2022/11/11 13:48:03;;;;;;;14.40;9.23;;;;;;;;;;5015910;28;20712;-85
2022/11/11 13:50:32;;;;;;;8.90;7.27;;;;;;;;;;5027982;28;20235;-85
2022/11/11 13:53:01;;;;;;;10.77;7.03;;;;;;;;;;5028577;28;20561;-85
2022/11/11 13:55:33;;;;;;;9.10;7.20;;;;;;;;;;5015651;28;20204;-85
2022/11/11 13:58:01;;;;;;;10.50;7.97;;;;;;;;;;5021937;28;20253;-85
2022/11/11 14:00:31;;;;;;;11.47;8.53;;;;;;;;;;5022554;28;20228;-85
2022/11/11 14:03:17;;;;;;;10.80;8.60;;;;;;;;;;5019454;28;20231;-84
2022/11/11 14:05:44;;;;;;;9.30;8.30;;;;;;;;;;5022955;28;22043;-85
2022/11/11 14:08:32;;;;;;;10.70;7.90;;;;;;;;;;5017495;28;20266;-85
2022/11/11 14:11:01;;;;;;;12.53;7.77;;;;;;;;;;5016314;28;20204;-85
2022/11/11 14:13:38;;;;;;;10.23;8.20;;;;;;;;;;5016901;28;20227;-86
2022/11/11 14:16:06;;;;;;;11.93;8.40;;;;;;;;;;5018136;28;20199;-85
2022/11/11 14:18:40;;;;;;;11.03;7.83;;;;;;;;;;5016109;28;20257;-85
2022/11/11 14:21:09;;;;;;;12.23;8.20;;;;;;;;;;5019552;28;21252;-85
2022/11/11 14:23:37;;;;;;;10.77;8.27;;;;;;;;;;5017992;28;20200;-86
2022/11/11 14:26:23;;;;;;;11.60;8.73;;;;;;;;;;5016030;28;20200;-85
2022/11/11 14:28:52;;;;;;;11.63;8.43;;;;;;;;;;5022307;28;20304;-86
2022/11/11 14:31:33;;;;;;;13.10;10.30;;;;;;;;;;5022732;28;20204;-85
2022/11/11 14:34:02;;;;;;;15.73;11.93;;;;;;;;;;5021934;28;20204;-84
2022/11/11 14:36:33;;;;;;;21.03;15.50;;;;;;;;;;5016838;28;20684;-85
2022/11/11 14:39:07;;;;;;;18.23;14.30;;;;;;;;;;5020692;28;20224;-85
2022/11/11 14:41:49;;;;;;;10.20;8.30;;;;;;;;;;4996781;28;20237;-85
2022/11/11 14:44:32;;;;;;;10.10;8.03;;;;;;;;;;5010990;28;20615;-85
2022/11/11 14:47:17;;;;;;;18.60;11.33;;;;;;;;;;5018525;28;20201;-84
2022/11/11 14:49:49;;;;;;;16.73;11.97;;;;;;;;;;5003475;28;20212;-85
2022/11/11 14:52:20;;;;;;;9.63;7.60;;;;;;;;;;5021287;28;20196;-84
2022/11/11 14:55:06;;;;;;;9.87;7.57;;;;;;;;;;5015009;28;20713;-84
2022/11/11 14:57:37;;;;;;;10.90;8.10;;;;;;;;;;5011836;28;20223;-86
2022/11/11 15:00:06;;;;;;;10.50;7.50;;;;;;;;;;5016245;28;20696;-87
2022/11/11 15:02:35;;;;;;;9.73;7.37;;;;;;;;;;5021223;28;20300;-87
2022/11/11 15:05:03;;;;;;;10.80;7.67;;;;;;;;;;5025547;28;20204;-86
2022/11/11 15:07:39;;;;;;;9.30;7.33;;;;;;;;;;5018461;28;20695;-86
2022/11/11 15:10:16;;;;;;;8.67;7.20;;;;;;;;;;5016333;28;20630;-87
2022/11/11 15:13:01;;;;;;;9.00;7.53;;;;;;;;;;5012773;28;20259;-87
2022/11/11 15:15:34;;;;;;;8.93;7.30;;;;;;;;;;5012361;28;20224;-86
2022/11/11 15:18:09;;;;;;;11.83;8.03;;;;;;;;;;5017182;28;20419;-86
2022/11/11 15:20:47;;;;;;;11.60;7.97;;;;;;;;;;5018630;28;20615;-86
2022/11/11 15:23:18;;;;;;;10.33;8.40;;;;;;;;;;5018821;28;20207;-86
2022/11/11 15:25:50;;;;;;;10.03;8.17;;;;;;;;;;5021533;28;20205;-86
2022/11/11 15:28:24;;;;;;;10.57;8.30;;;;;;;;;;5018621;28;20201;-85
2022/11/11 15:31:01;;;;;;;13.03;9.50;;;;;;;;;;5015221;28;20270;-84
2022/11/11 15:33:36;;;;;;;15.60;9.00;;;;;;;;;;5015544;28;20231;-88
2022/11/11 15:36:07;;;;;;;14.30;9.33;;;;;;;;;;5028869;28;20253;-88
2022/11/11 15:38:35;;;;;;;12.03;8.73;;;;;;;;;;5019997;28;20256;-88
2022/11/11 15:41:02;;;;;;;11.27;9.23;;;;;;;;;;5019510;28;21568;-88
2022/11/11 15:43:31;;;;;;;11.73;8.97;;;;;;;;;;5035416;28;20320;-88
2022/11/11 15:46:01;;;;;;;12.97;9.43;;;;;;;;;;5017920;28;20233;-88
2022/11/11 15:48:29;;;;;;;12.37;9.73;;;;;;;;;;5028849;28;20223;-88
2022/11/11 15:50:56;;;;;;;12.63;9.80;;;;;;;;;;5013328;28;20225;-88
2022/11/11 15:53:25;;;;;;;12.60;9.13;;;;;;;;;;5016759;28;20208;-88
2022/11/11 15:55:53;;;;;;;13.37;9.47;;;;;;;;;;5016475;28;20201;-87
2022/11/11 15:58:26;;;;;;;11.47;8.93;;;;;;;;;;5016316;28;20225;-88
2022/11/11 16:00:53;;;;;;;12.73;9.07;;;;;;;;;;5015752;28;20640;-88
2022/11/11 16:03:24;;;;;;;14.00;9.70;;;;;;;;;;5019845;28;20201;-88
2022/11/11 16:05:51;;;;;;;13.23;9.27;;;;;;;;;;5015802;28;20259;-89
2022/11/11 16:08:20;;;;;;;13.33;9.77;;;;;;;;;;5023466;28;20200;-88
2022/11/11 16:10:48;;;;;;;12.33;9.60;;;;;;;;;;5019827;28;20204;-88
2022/11/11 16:13:18;;;;;;;13.43;9.17;;;;;;;;;;5036788;28;20266;-80